Time;durP1;ratioP1;P1;durP2;ratioP2;P2;SDS_P1;SDS_P2;PMS_P1;PMS_P2;Temp;Humidity;BMP_temperature;BMP_pressure;BME280_temperature;BME280_humidity;BME280_pressure;Samples;Min_cycle;Max_cycle;Signal;HPM_P1;HPM_P2
2023/12/23 00:00:24;;;;;;;4.72;1.35;;;4.50;99.90;;;;;;5074636;28;20258;-64
2023/12/23 00:02:50;;;;;;;11.23;1.50;;;4.40;99.90;;;;;;5074062;28;20713;-64
2023/12/23 00:05:18;;;;;;;6.82;1.33;;;4.30;99.90;;;;;;5075015;28;20200;-63
2023/12/23 00:07:45;;;;;;;4.47;1.55;;;4.20;99.90;;;;;;5073924;28;20561;-63
2023/12/23 00:10:12;;;;;;;5.72;1.65;;;4.10;99.90;;;;;;5074946;28;20208;-64
2023/12/23 00:12:39;;;;;;;3.53;1.17;;;4.00;99.90;;;;;;5075074;28;20719;-64
2023/12/23 00:15:06;;;;;;;8.15;1.38;;;4.00;99.90;;;;;;5075108;28;20200;-63
2023/12/23 00:17:34;;;;;;;4.78;1.65;;;3.90;99.90;;;;;;5075451;28;20221;-63
2023/12/23 00:20:01;;;;;;;5.90;2.08;;;3.80;99.90;;;;;;5074664;28;20201;-64
2023/12/23 00:22:28;;;;;;;8.35;1.33;;;3.80;99.90;;;;;;5074286;28;20220;-64
2023/12/23 00:24:54;;;;;;;7.80;1.75;;;3.80;99.90;;;;;;5074224;28;20201;-64
2023/12/23 00:27:21;;;;;;;3.90;1.50;;;3.70;99.90;;;;;;5074307;28;20203;-64
2023/12/23 00:29:48;;;;;;;4.97;1.27;;;3.70;99.90;;;;;;5078832;28;20295;-64
2023/12/23 00:32:15;;;;;;;4.30;1.20;;;3.70;99.90;;;;;;5080315;28;20221;-64
2023/12/23 00:34:43;;;;;;;2.80;1.90;;;3.70;99.90;;;;;;5081445;28;20212;-65
2023/12/23 00:37:09;;;;;;;4.13;1.42;;;3.70;99.90;;;;;;5081645;28;20221;-64
2023/12/23 00:39:36;;;;;;;7.30;2.05;;;3.60;99.90;;;;;;5085711;28;20208;-64
2023/12/23 00:42:03;;;;;;;7.35;1.85;;;3.60;99.90;;;;;;5086423;28;20227;-64
2023/12/23 00:44:30;;;;;;;4.50;1.38;;;3.60;99.90;;;;;;5086374;28;20211;-64
2023/12/23 00:46:56;;;;;;;7.50;1.40;;;3.60;99.90;;;;;;5086529;28;20200;-65
2023/12/23 00:49:23;;;;;;;10.38;2.00;;;3.60;99.90;;;;;;5089701;28;20211;-64
2023/12/23 00:51:51;;;;;;;2.92;1.45;;;3.60;99.90;;;;;;5086396;28;20815;-64
2023/12/23 00:54:19;;;;;;;4.35;1.67;;;3.60;99.90;;;;;;5082811;28;20579;-65
2023/12/23 00:56:45;;;;;;;13.88;1.30;;;3.60;99.90;;;;;;5079925;28;20201;-63
2023/12/23 00:59:12;;;;;;;4.75;1.48;;;3.50;99.90;;;;;;5078315;28;20227;-65
2023/12/23 01:01:42;;;;;;;7.43;2.28;;;3.50;99.90;;;;;;5077805;28;20225;-64
2023/12/23 01:04:09;;;;;;;3.00;1.15;;;3.50;99.90;;;;;;5078733;28;20201;-64
2023/12/23 01:06:36;;;;;;;2.55;1.35;;;3.50;99.90;;;;;;5077937;28;20251;-64
2023/12/23 01:09:04;;;;;;;3.05;0.88;;;3.40;99.90;;;;;;5081102;28;20197;-63
2023/12/23 01:11:31;;;;;;;3.55;1.17;;;3.40;99.90;;;;;;5079340;28;20228;-65
2023/12/23 01:13:57;;;;;;;3.72;1.20;;;3.40;99.90;;;;;;5081036;28;20279;-64
2023/12/23 01:16:24;;;;;;;3.50;1.17;;;3.40;99.90;;;;;;5084450;28;20205;-62
2023/12/23 01:18:51;;;;;;;3.15;1.67;;;3.30;99.90;;;;;;5086639;28;20217;-64
2023/12/23 01:21:20;;;;;;;3.42;1.48;;;3.30;99.90;;;;;;5086760;28;20225;-65
2023/12/23 01:23:46;;;;;;;9.38;1.95;;;3.30;99.90;;;;;;5086380;28;20750;-64
2023/12/23 01:26:15;;;;;;;4.47;1.45;;;3.30;99.90;;;;;;5087045;28;20201;-64
2023/12/23 01:28:41;;;;;;;5.60;1.70;;;3.30;99.90;;;;;;5087767;28;20685;-64
2023/12/23 01:31:08;;;;;;;12.13;1.70;;;3.30;99.90;;;;;;5088089;28;20231;-63
2023/12/23 01:33:35;;;;;;;5.20;1.70;;;3.30;99.90;;;;;;5088795;28;20204;-61
2023/12/23 01:36:05;;;;;;;5.85;1.67;;;3.30;99.90;;;;;;5086142;28;20203;-64
2023/12/23 01:38:33;;;;;;;5.22;1.48;;;3.30;99.90;;;;;;5081927;28;20225;-63
2023/12/23 01:40:59;;;;;;;4.88;1.60;;;3.30;99.90;;;;;;5081531;28;20579;-64
2023/12/23 01:43:28;;;;;;;5.90;1.70;;;3.40;99.90;;;;;;5080521;28;20704;-64
2023/12/23 01:45:58;;;;;;;5.63;1.85;;;3.40;99.90;;;;;;5082196;28;20207;-63
2023/12/23 01:48:26;;;;;;;7.97;1.55;;;3.40;99.90;;;;;;5088586;28;20227;-62
2023/12/23 01:50:54;;;;;;;3.50;1.48;;;3.50;99.90;;;;;;5088674;28;20211;-64
2023/12/23 01:53:22;;;;;;;5.10;1.40;;;3.50;99.90;;;;;;5088633;28;20254;-64
2023/12/23 01:55:49;;;;;;;3.78;1.45;;;3.60;99.90;;;;;;5088524;28;20288;-63
2023/12/23 01:58:17;;;;;;;8.60;1.35;;;3.70;99.90;;;;;;5087688;28;20232;-64
2023/12/23 02:00:45;;;;;;;6.32;1.65;;;3.70;99.90;;;;;;5083499;28;20197;-64
2023/12/23 02:03:12;;;;;;;7.38;1.58;;;3.70;99.90;;;;;;5087879;28;20220;-63
2023/12/23 02:05:38;;;;;;;10.15;2.22;;;3.70;99.90;;;;;;5089298;28;20204;-63
2023/12/23 02:08:07;;;;;;;6.65;2.45;;;3.80;99.90;;;;;;5090715;28;20201;-64
2023/12/23 02:10:34;;;;;;;7.45;1.70;;;3.80;99.90;;;;;;5090464;28;20212;-64
2023/12/23 02:13:09;;;;;;;3.80;2.10;;;3.80;99.90;;;;;;5089170;28;20223;-64
2023/12/23 02:15:38;;;;;;;4.88;1.35;;;3.80;99.90;;;;;;5090466;28;20192;-64
2023/12/23 02:18:06;;;;;;;3.67;1.25;;;3.80;99.90;;;;;;5087621;28;20235;-64
2023/12/23 02:20:33;;;;;;;8.02;1.45;;;3.80;99.90;;;;;;5085509;28;20655;-64
2023/12/23 02:23:01;;;;;;;10.45;1.65;;;3.80;99.90;;;;;;5085793;28;20225;-64
2023/12/23 02:25:28;;;;;;;4.75;2.00;;;3.80;99.90;;;;;;5091129;28;20221;-64
2023/12/23 02:27:59;;;;;;;6.90;1.42;;;3.80;99.90;;;;;;5085070;28;20600;-65
2023/12/23 02:30:28;;;;;;;9.75;2.13;;;3.90;99.90;;;;;;5080922;28;20186;-64
2023/12/23 02:32:55;;;;;;;9.00;1.75;;;3.90;99.90;;;;;;5077912;28;20239;-65
2023/12/23 02:35:24;;;;;;;8.00;1.75;;;3.90;99.90;;;;;;5077544;28;20531;-65
2023/12/23 02:37:51;;;;;;;7.05;1.77;;;3.90;99.90;;;;;;5076261;28;20217;-65
2023/12/23 02:40:19;;;;;;;7.28;2.10;;;3.90;99.90;;;;;;5076893;28;20201;-65
2023/12/23 02:42:46;;;;;;;5.05;1.70;;;4.00;99.90;;;;;;5076430;28;20224;-65
2023/12/23 02:45:12;;;;;;;12.18;2.00;;;4.00;99.90;;;;;;5076679;28;20211;-64
2023/12/23 02:47:39;;;;;;;7.50;2.20;;;4.00;99.90;;;;;;5076294;28;20626;-65
2023/12/23 02:50:07;;;;;;;10.55;2.60;;;4.00;99.90;;;;;;5076547;28;20211;-65
2023/12/23 02:52:34;;;;;;;6.22;2.15;;;4.10;99.90;;;;;;5074833;28;20227;-64
2023/12/23 02:55:00;;;;;;;9.30;1.83;;;4.10;99.90;;;;;;5075865;28;20693;-64
2023/12/23 02:57:28;;;;;;;10.23;2.20;;;4.10;99.90;;;;;;5075505;28;20205;-64
2023/12/23 02:59:55;;;;;;;6.47;1.58;;;4.20;99.90;;;;;;5076174;28;20306;-64
2023/12/23 03:02:22;;;;;;;8.55;1.88;;;4.20;99.90;;;;;;5076153;28;20601;-64
2023/12/23 03:04:49;;;;;;;5.07;1.65;;;4.30;99.90;;;;;;5075740;28;20220;-65
2023/12/23 03:07:15;;;;;;;7.80;2.33;;;4.30;99.90;;;;;;5075016;28;20573;-64
2023/12/23 03:09:42;;;;;;;4.45;1.70;;;4.30;99.90;;;;;;5075540;28;20201;-66
2023/12/23 03:12:09;;;;;;;5.72;2.28;;;4.40;99.90;;;;;;5075558;28;20216;-65
2023/12/23 03:14:37;;;;;;;8.80;2.05;;;4.40;99.90;;;;;;5075353;28;20205;-64
2023/12/23 03:17:04;;;;;;;8.45;1.80;;;4.40;99.90;;;;;;5075040;28;20201;-64
2023/12/23 03:19:31;;;;;;;9.55;2.05;;;4.50;99.90;;;;;;5075129;28;20225;-65
2023/12/23 03:21:58;;;;;;;7.82;2.13;;;4.50;99.90;;;;;;5075047;28;20217;-65
2023/12/23 03:24:24;;;;;;;8.80;2.28;;;4.50;99.90;;;;;;5075004;28;20216;-62
2023/12/23 03:26:51;;;;;;;4.80;1.38;;;4.50;99.90;;;;;;5074840;28;20566;-64
2023/12/23 03:29:18;;;;;;;7.68;1.90;;;4.50;99.90;;;;;;5074629;28;20658;-64
2023/12/23 03:31:46;;;;;;;9.57;1.92;;;4.50;99.90;;;;;;5074532;28;20725;-64
2023/12/23 03:34:13;;;;;;;12.50;2.10;;;4.50;99.90;;;;;;5074686;28;20666;-59
2023/12/23 03:36:39;;;;;;;4.40;1.83;;;4.50;99.90;;;;;;5074756;28;20201;-63
2023/12/23 03:39:06;;;;;;;11.20;1.70;;;4.40;99.90;;;;;;5075115;28;20220;-64
2023/12/23 03:41:33;;;;;;;6.30;1.95;;;4.40;99.90;;;;;;5075283;28;20733;-64
2023/12/23 03:44:00;;;;;;;9.82;1.90;;;4.40;99.90;;;;;;5075771;28;20283;-63
2023/12/23 03:46:28;;;;;;;11.73;2.38;;;4.30;99.90;;;;;;5076448;28;20205;-64
2023/12/23 03:48:56;;;;;;;7.82;2.00;;;4.30;99.90;;;;;;5076222;28;20207;-64
2023/12/23 03:51:23;;;;;;;13.48;2.00;;;4.30;99.90;;;;;;5076532;28;20227;-64
2023/12/23 03:53:50;;;;;;;4.88;1.80;;;4.30;99.90;;;;;;5075284;28;20667;-65
2023/12/23 03:56:16;;;;;;;5.50;1.77;;;4.30;99.90;;;;;;5075033;28;20201;-64
2023/12/23 03:58:43;;;;;;;5.00;2.55;;;4.30;99.90;;;;;;5075122;28;20217;-64
2023/12/23 04:01:10;;;;;;;13.90;2.90;;;4.30;99.90;;;;;;5074149;28;20220;-65
2023/12/23 04:03:37;;;;;;;4.60;1.40;;;4.30;99.90;;;;;;5073869;28;20185;-64
2023/12/23 04:06:05;;;;;;;5.72;2.05;;;4.40;99.90;;;;;;5073708;28;20201;-64
2023/12/23 04:08:32;;;;;;;9.77;1.92;;;4.40;99.90;;;;;;5073876;28;20666;-63
2023/12/23 04:12:51;;;;;;;2.30;1.52;;;4.40;99.90;;;;;;5091812;28;20633;-65
2023/12/23 04:15:18;;;;;;;7.60;2.50;;;4.30;99.90;;;;;;5091311;28;20196;-65
2023/12/23 04:17:45;;;;;;;6.38;2.22;;;4.20;99.90;;;;;;5091992;28;20196;-64
2023/12/23 04:20:12;;;;;;;9.02;1.58;;;4.40;99.90;;;;;;5091405;28;20287;-64
2023/12/23 04:22:39;;;;;;;12.40;2.50;;;4.40;99.90;;;;;;5091980;28;20213;-64
2023/12/23 04:25:06;;;;;;;4.40;1.88;;;4.40;99.90;;;;;;5092152;28;20203;-64
2023/12/23 04:27:33;;;;;;;6.13;2.08;;;4.30;99.90;;;;;;5091534;28;20296;-63
2023/12/23 04:30:01;;;;;;;6.32;1.70;;;4.40;99.90;;;;;;5091210;28;20204;-64
2023/12/23 04:32:28;;;;;;;7.43;2.08;;;4.40;99.90;;;;;;5092217;28;20286;-63
2023/12/23 04:34:55;;;;;;;5.70;1.77;;;4.40;99.90;;;;;;5092827;28;20196;-64
2023/12/23 04:37:21;;;;;;;5.85;1.50;;;4.40;99.90;;;;;;5091662;28;20207;-63
2023/12/23 04:39:48;;;;;;;9.50;1.90;;;4.40;99.90;;;;;;5093068;28;20210;-63
2023/12/23 04:42:15;;;;;;;10.27;2.00;;;4.40;99.90;;;;;;5092999;28;20298;-64
2023/12/23 04:44:42;;;;;;;7.57;2.25;;;4.40;99.90;;;;;;5091346;28;20201;-64
2023/12/23 04:47:10;;;;;;;12.55;2.45;;;4.40;99.90;;;;;;5091551;28;20210;-63
2023/12/23 04:49:37;;;;;;;17.95;2.30;;;4.40;99.90;;;;;;5091600;28;20206;-64
2023/12/23 04:52:04;;;;;;;10.90;2.25;;;4.40;99.90;;;;;;5091866;28;20235;-63
2023/12/23 04:54:32;;;;;;;8.57;1.80;;;4.40;99.90;;;;;;5091021;28;20674;-64
2023/12/23 04:56:59;;;;;;;3.08;1.60;;;4.40;99.90;;;;;;5091250;28;20565;-64
2023/12/23 04:59:26;;;;;;;7.57;2.30;;;4.40;99.90;;;;;;5091093;28;20663;-64
2023/12/23 05:01:53;;;;;;;6.75;1.40;;;4.30;99.90;;;;;;5095276;22;20321;-60
2023/12/23 05:04:21;;;;;;;11.32;2.25;;;4.30;99.90;;;;;;5049360;28;20202;-60
2023/12/23 05:06:48;;;;;;;3.80;1.63;;;4.30;99.90;;;;;;5049288;28;20204;-59
2023/12/23 05:09:15;;;;;;;15.02;1.75;;;4.40;99.90;;;;;;5049351;28;20202;-59
2023/12/23 05:11:42;;;;;;;6.40;2.10;;;4.40;99.90;;;;;;5049269;28;20226;-60
2023/12/23 05:14:09;;;;;;;7.40;1.63;;;4.30;99.90;;;;;;5049406;28;20209;-58
2023/12/23 05:16:36;;;;;;;7.10;2.00;;;4.30;99.90;;;;;;5049348;28;20205;-60
2023/12/23 05:19:03;;;;;;;2.38;1.40;;;4.30;99.90;;;;;;5049431;28;20285;-60
2023/12/23 05:21:31;;;;;;;15.75;3.08;;;4.30;99.90;;;;;;5049044;28;20222;-60
2023/12/23 05:23:57;;;;;;;8.23;2.95;;;4.30;99.90;;;;;;5036653;28;20217;-59
2023/12/23 05:26:24;;;;;;;3.70;1.50;;;4.30;99.90;;;;;;5035764;28;20581;-59
2023/12/23 05:28:51;;;;;;;8.32;1.67;;;4.30;99.90;;;;;;5035816;28;20674;-60
2023/12/23 05:31:18;;;;;;;9.18;2.50;;;4.30;99.90;;;;;;5036679;28;20718;-59
2023/12/23 05:33:45;;;;;;;6.32;2.00;;;4.30;99.90;;;;;;5036071;28;20210;-59
2023/12/23 05:36:12;;;;;;;2.30;1.50;;;4.30;99.90;;;;;;5036971;28;20230;-60
2023/12/23 05:38:40;;;;;;;14.43;2.10;;;4.30;99.90;;;;;;5035632;28;20198;-60
2023/12/23 05:41:09;;;;;;;6.32;1.88;;;4.30;99.90;;;;;;5035459;28;20248;-59
2023/12/23 05:43:36;;;;;;;7.38;1.75;;;4.30;99.90;;;;;;5035247;28;20700;-59
2023/12/23 05:46:03;;;;;;;2.55;1.05;;;4.30;99.90;;;;;;5035092;28;20214;-60
2023/12/23 05:48:30;;;;;;;2.67;1.52;;;4.30;99.90;;;;;;5035369;28;20206;-59
2023/12/23 05:50:56;;;;;;;3.88;0.98;;;4.30;99.90;;;;;;5035349;28;20199;-60
2023/12/23 05:53:23;;;;;;;3.75;1.20;;;4.30;99.90;;;;;;5035301;28;20206;-59
2023/12/23 05:55:51;;;;;;;7.65;0.95;;;4.20;99.90;;;;;;5034874;28;20198;-59
2023/12/23 05:58:18;;;;;;;6.75;1.23;;;4.20;99.90;;;;;;5034780;28;20581;-59
2023/12/23 06:00:45;;;;;;;3.85;1.17;;;4.20;99.90;;;;;;5034777;28;20698;-60
2023/12/23 06:03:12;;;;;;;2.75;1.10;;;4.20;99.90;;;;;;5034764;28;20570;-59
2023/12/23 06:05:39;;;;;;;2.72;0.77;;;4.20;99.90;;;;;;5034995;28;20205;-59
2023/12/23 06:08:07;;;;;;;9.52;1.63;;;4.20;99.90;;;;;;5034983;28;20198;-59
2023/12/23 06:10:34;;;;;;;3.10;1.52;;;4.20;99.90;;;;;;5034923;28;20276;-59
2023/12/23 06:13:02;;;;;;;3.08;1.20;;;4.10;99.90;;;;;;5034822;28;20572;-59
2023/12/23 06:15:28;;;;;;;1.95;1.30;;;4.10;99.90;;;;;;5034959;28;20296;-59
2023/12/23 06:17:55;;;;;;;5.30;1.30;;;4.10;99.90;;;;;;5034883;28;20202;-59
2023/12/23 06:20:22;;;;;;;7.40;1.50;;;4.10;99.90;;;;;;5034460;28;20281;-61
2023/12/23 06:22:49;;;;;;;2.42;1.30;;;4.10;99.90;;;;;;5034328;28;20314;-60
2023/12/23 06:25:16;;;;;;;3.00;1.73;;;4.10;99.90;;;;;;5034637;28;20301;-60
2023/12/23 06:27:43;;;;;;;4.68;1.58;;;4.10;99.90;;;;;;5034766;28;20209;-60
2023/12/23 06:30:12;;;;;;;4.40;2.03;;;4.10;99.90;;;;;;5034816;28;20202;-60
2023/12/23 06:32:39;;;;;;;4.53;1.10;;;4.10;99.90;;;;;;5034546;28;20233;-59
2023/12/23 06:35:07;;;;;;;6.13;1.23;;;4.10;99.90;;;;;;5033872;28;20209;-59
2023/12/23 06:37:33;;;;;;;4.22;2.03;;;4.10;99.90;;;;;;5034736;28;20205;-60
2023/12/23 06:40:00;;;;;;;7.57;1.45;;;4.10;99.90;;;;;;5034411;28;20202;-59
2023/12/23 06:42:27;;;;;;;6.65;1.30;;;4.10;99.90;;;;;;5034538;28;20234;-60
2023/12/23 06:44:54;;;;;;;3.92;1.52;;;4.10;99.90;;;;;;5034304;28;20202;-60
2023/12/23 06:47:22;;;;;;;2.22;0.93;;;4.10;99.90;;;;;;5035538;28;20217;-61
2023/12/23 06:49:49;;;;;;;3.65;1.40;;;4.00;99.90;;;;;;5034800;28;20681;-59
2023/12/23 06:52:15;;;;;;;3.65;1.42;;;4.00;99.90;;;;;;5034595;28;20229;-59
2023/12/23 06:54:42;;;;;;;2.85;1.48;;;4.00;99.90;;;;;;5034775;28;20202;-59
2023/12/23 06:57:10;;;;;;;3.90;1.40;;;4.00;99.90;;;;;;5034519;28;20209;-60
2023/12/23 06:59:36;;;;;;;2.15;1.17;;;4.00;99.90;;;;;;5034659;28;20206;-59
2023/12/23 07:02:03;;;;;;;2.40;0.82;;;4.00;99.90;;;;;;5034081;28;20253;-60
2023/12/23 07:04:31;;;;;;;2.58;0.90;;;4.00;99.90;;;;;;5034297;28;20214;-58
2023/12/23 07:06:58;;;;;;;2.28;1.10;;;3.90;99.90;;;;;;5038542;28;20272;-59
2023/12/23 07:09:25;;;;;;;3.80;1.00;;;3.90;99.90;;;;;;5040442;28;20198;-59
2023/12/23 07:11:52;;;;;;;1.35;1.02;;;3.90;99.90;;;;;;5040038;28;20229;-58
2023/12/23 07:14:18;;;;;;;5.43;1.65;;;3.90;99.90;;;;;;5039249;28;20209;-58
2023/12/23 07:16:46;;;;;;;1.95;1.02;;;3.90;99.90;;;;;;5040366;28;20198;-57
2023/12/23 07:19:14;;;;;;;2.15;1.15;;;3.90;99.90;;;;;;5037067;28;20203;-58
2023/12/23 07:21:42;;;;;;;4.07;1.15;;;3.90;99.90;;;;;;5036621;28;20276;-59
2023/12/23 07:24:09;;;;;;;2.20;1.80;;;3.90;99.90;;;;;;5033735;28;20228;-60
2023/12/23 07:26:36;;;;;;;1.77;0.98;;;3.90;99.90;;;;;;5033980;28;20202;-60
2023/12/23 07:29:03;;;;;;;2.75;1.30;;;3.80;99.90;;;;;;5033775;28;20202;-59
2023/12/23 07:31:32;;;;;;;4.97;1.27;;;3.80;99.90;;;;;;5033347;28;20224;-60
2023/12/23 07:33:59;;;;;;;2.03;1.30;;;3.80;99.90;;;;;;5033983;28;20206;-60
2023/12/23 07:36:25;;;;;;;4.15;1.10;;;3.80;99.90;;;;;;5033672;28;20268;-60
2023/12/23 07:38:54;;;;;;;3.05;1.20;;;3.80;99.90;;;;;;5033650;28;20202;-60
2023/12/23 07:41:20;;;;;;;3.58;1.23;;;3.80;99.90;;;;;;5033666;28;20405;-60
2023/12/23 07:43:47;;;;;;;4.72;1.02;;;3.80;99.90;;;;;;5033174;28;20680;-60
2023/12/23 07:46:14;;;;;;;4.20;1.00;;;3.80;99.90;;;;;;5033178;28;20297;-60
2023/12/23 07:48:41;;;;;;;2.58;0.98;;;3.80;99.90;;;;;;5033947;28;20563;-60
2023/12/23 07:51:08;;;;;;;2.83;1.00;;;3.80;99.90;;;;;;5033599;28;20742;-60
2023/12/23 07:53:35;;;;;;;1.45;0.85;;;3.70;99.90;;;;;;5032717;28;20704;-59
2023/12/23 07:56:04;;;;;;;1.65;1.15;;;3.70;99.90;;;;;;5033068;28;20202;-59
2023/12/23 07:58:31;;;;;;;3.67;0.80;;;3.70;99.90;;;;;;5032839;28;20699;-60
2023/12/23 08:00:57;;;;;;;2.95;0.82;;;3.70;99.90;;;;;;5032784;28;20213;-60
2023/12/23 08:03:24;;;;;;;0.95;0.90;;;3.70;99.90;;;;;;5032788;28;20183;-60
2023/12/23 08:05:51;;;;;;;1.92;0.80;;;3.70;99.90;;;;;;5033598;28;20198;-59
2023/12/23 08:08:18;;;;;;;1.15;0.80;;;3.70;99.90;;;;;;5032987;28;20198;-59
2023/12/23 08:10:45;;;;;;;2.45;0.98;;;3.70;99.90;;;;;;5033206;28;20198;-60
2023/12/23 08:13:13;;;;;;;1.15;0.70;;;3.70;99.90;;;;;;5033544;28;20219;-58
2023/12/23 08:15:39;;;;;;;1.70;0.93;;;3.70;99.90;;;;;;5033399;28;20205;-59
2023/12/23 08:18:06;;;;;;;0.68;0.68;;;3.70;99.90;;;;;;5033101;28;20208;-61
2023/12/23 08:20:33;;;;;;;1.17;0.70;;;3.70;99.90;;;;;;5033711;28;20692;-60
2023/12/23 08:23:00;;;;;;;0.90;0.70;;;3.70;99.90;;;;;;5033718;28;20230;-58
2023/12/23 08:25:27;;;;;;;1.67;0.88;;;3.70;99.90;;;;;;5033293;28;20624;-59
2023/12/23 08:27:54;;;;;;;1.48;0.80;;;3.70;99.90;;;;;;5033545;28;20199;-60
2023/12/23 08:30:22;;;;;;;2.15;1.20;;;3.60;99.90;;;;;;5032891;28;20198;-59
2023/12/23 08:32:49;;;;;;;1.17;0.70;;;3.60;99.90;;;;;;5033322;28;20222;-61
2023/12/23 08:35:15;;;;;;;1.77;0.90;;;3.60;99.90;;;;;;5032914;28;20592;-61
2023/12/23 08:37:42;;;;;;;1.30;0.70;;;3.70;99.90;;;;;;5032476;28;20206;-60
2023/12/23 08:40:10;;;;;;;0.90;0.90;;;3.60;99.90;;;;;;5033312;28;20580;-60
2023/12/23 08:42:37;;;;;;;1.10;0.85;;;3.60;99.90;;;;;;5032838;28;20834;-60
2023/12/23 08:45:05;;;;;;;0.70;0.70;;;3.60;99.90;;;;;;5032680;28;20203;-60
2023/12/23 08:47:33;;;;;;;1.27;0.95;;;3.60;99.90;;;;;;5032669;28;20207;-60
2023/12/23 08:49:59;;;;;;;0.90;0.77;;;3.60;99.90;;;;;;5032236;28;20610;-60
2023/12/23 08:52:27;;;;;;;1.50;1.10;;;3.60;99.90;;;;;;5032523;28;20223;-59
2023/12/23 08:54:54;;;;;;;0.88;0.88;;;3.60;99.90;;;;;;5032423;28;20669;-59
2023/12/23 08:57:21;;;;;;;1.33;0.60;;;3.60;99.90;;;;;;5032143;28;20672;-59
2023/12/23 08:59:47;;;;;;;1.27;1.17;;;3.60;99.90;;;;;;5036249;28;20208;-59
2023/12/23 09:02:14;;;;;;;0.93;0.90;;;3.60;99.90;;;;;;5035556;28;20668;-59
2023/12/23 09:04:42;;;;;;;1.65;1.00;;;3.60;99.90;;;;;;5036163;28;20664;-59
2023/12/23 09:07:09;;;;;;;1.50;0.90;;;3.60;99.90;;;;;;5036195;28;20577;-59
2023/12/23 09:09:36;;;;;;;1.50;1.27;;;3.60;99.90;;;;;;5035753;28;20574;-59
2023/12/23 09:12:03;;;;;;;2.15;1.08;;;3.60;99.90;;;;;;5036359;28;20254;-59
2023/12/23 09:14:30;;;;;;;0.93;0.90;;;3.60;99.90;;;;;;5036328;28;20206;-60
2023/12/23 09:16:57;;;;;;;2.10;0.88;;;3.60;99.90;;;;;;5036177;28;20205;-59
2023/12/23 09:19:24;;;;;;;0.80;0.75;;;3.60;99.90;;;;;;5036161;28;20202;-59
2023/12/23 09:21:52;;;;;;;1.35;1.05;;;3.60;99.90;;;;;;5035903;28;20218;-60
2023/12/23 09:24:18;;;;;;;1.15;1.00;;;3.60;99.90;;;;;;5035916;28;20199;-60
2023/12/23 09:26:45;;;;;;;3.85;0.80;;;3.50;99.90;;;;;;5035869;28;20615;-65
2023/12/23 09:29:12;;;;;;;0.82;0.70;;;3.50;99.90;;;;;;5035536;28;20676;-59
2023/12/23 09:31:39;;;;;;;3.22;1.05;;;3.50;99.90;;;;;;5035618;28;20672;-60
2023/12/23 09:34:05;;;;;;;1.42;1.23;;;3.50;99.90;;;;;;5035736;28;20225;-60
2023/12/23 09:36:32;;;;;;;1.20;1.10;;;3.50;99.90;;;;;;5035802;28;20206;-59
2023/12/23 09:39:00;;;;;;;0.82;0.82;;;3.50;99.90;;;;;;5035932;28;20209;-60
2023/12/23 09:41:27;;;;;;;1.80;1.40;;;3.40;99.90;;;;;;5035630;28;20222;-61
2023/12/23 09:43:54;;;;;;;1.02;0.80;;;3.40;99.90;;;;;;5035729;28;20202;-61
2023/12/23 09:46:21;;;;;;;1.10;1.00;;;3.40;99.90;;;;;;5035117;28;20256;-59
2023/12/23 09:48:48;;;;;;;1.55;1.05;;;3.40;99.90;;;;;;5035094;28;20670;-60
2023/12/23 09:51:16;;;;;;;0.73;0.73;;;3.40;99.90;;;;;;5035370;28;20222;-59
2023/12/23 09:53:47;;;;;;;2.00;0.80;;;3.40;99.90;;;;;;5035474;28;20218;-60
2023/12/23 09:56:15;;;;;;;2.30;1.40;;;3.30;99.90;;;;;;5035730;28;20191;-60
2023/12/23 09:58:44;;;;;;;1.10;1.00;;;3.30;99.90;;;;;;5035630;28;20198;-59
2023/12/23 10:01:11;;;;;;;1.77;0.90;;;3.40;99.90;;;;;;5034793;28;20246;-60
2023/12/23 10:03:37;;;;;;;2.65;1.00;;;3.40;99.90;;;;;;5035596;28;20526;-59
2023/12/23 10:06:04;;;;;;;1.33;1.10;;;3.40;99.90;;;;;;5035607;28;20229;-59
2023/12/23 10:08:32;;;;;;;1.40;1.10;;;3.40;99.90;;;;;;5035076;28;20209;-59
2023/12/23 10:10:58;;;;;;;1.80;0.98;;;3.40;99.90;;;;;;5035561;28;20213;-59
2023/12/23 10:13:26;;;;;;;1.02;0.93;;;3.40;99.90;;;;;;5036018;28;20225;-59
2023/12/23 10:15:53;;;;;;;2.10;1.35;;;3.40;99.90;;;;;;5035676;28;20209;-58
2023/12/23 10:18:20;;;;;;;1.40;1.10;;;3.40;99.90;;;;;;5034787;28;20214;-60
2023/12/23 10:20:47;;;;;;;1.38;1.08;;;3.40;99.90;;;;;;5034822;28;20204;-60
2023/12/23 10:23:14;;;;;;;1.42;1.33;;;3.40;99.90;;;;;;5034503;28;20204;-59
2023/12/23 10:25:41;;;;;;;1.50;1.40;;;3.40;99.90;;;;;;5034873;28;20594;-60
2023/12/23 10:28:09;;;;;;;1.42;1.10;;;3.50;99.90;;;;;;5034813;28;20221;-58
2023/12/23 10:30:39;;;;;;;1.20;1.10;;;3.50;99.90;;;;;;5034605;28;20209;-59
2023/12/23 10:33:07;;;;;;;1.02;0.93;;;3.50;99.90;;;;;;5034745;28;20597;-60
2023/12/23 10:35:38;;;;;;;1.33;1.20;;;3.50;99.90;;;;;;5034712;28;20204;-59
2023/12/23 10:38:09;;;;;;;1.40;1.27;;;3.50;99.90;;;;;;5034721;28;20190;-59
2023/12/23 10:40:36;;;;;;;1.50;1.40;;;3.50;99.90;;;;;;5034563;28;20187;-59
2023/12/23 10:43:04;;;;;;;4.60;1.60;;;3.50;99.90;;;;;;5034561;28;20246;-60
2023/12/23 10:45:32;;;;;;;1.45;1.30;;;3.50;99.90;;;;;;5034241;28;20209;-60
2023/12/23 10:48:02;;;;;;;1.92;1.40;;;3.50;99.90;;;;;;5033991;28;20198;-59
2023/12/23 10:50:31;;;;;;;1.35;1.25;;;3.50;99.90;;;;;;5034391;28;20198;-61
2023/12/23 10:52:59;;;;;;;2.28;1.65;;;3.60;99.90;;;;;;5033795;28;20601;-61
2023/12/23 10:55:28;;;;;;;1.50;1.27;;;3.60;99.90;;;;;;5034203;28;20203;-60
2023/12/23 10:57:56;;;;;;;1.10;1.00;;;3.60;99.90;;;;;;5034074;28;20206;-61
2023/12/23 11:00:24;;;;;;;1.42;1.33;;;3.60;99.90;;;;;;5035172;28;20281;-60
2023/12/23 11:02:57;;;;;;;2.45;1.48;;;3.60;99.90;;;;;;5034662;28;20288;-59
2023/12/23 11:05:26;;;;;;;1.50;1.20;;;3.60;99.90;;;;;;5034737;28;20281;-60
2023/12/23 11:07:54;;;;;;;2.13;1.20;;;3.60;99.90;;;;;;5034853;28;20260;-58
2023/12/23 11:10:22;;;;;;;1.50;1.40;;;3.60;99.90;;;;;;5035512;28;20591;-57
2023/12/23 11:12:49;;;;;;;3.30;1.30;;;3.70;99.90;;;;;;5033925;28;20222;-59
2023/12/23 11:15:16;;;;;;;1.27;1.17;;;3.70;99.90;;;;;;5034002;28;20228;-60
2023/12/23 11:17:44;;;;;;;1.60;1.50;;;3.70;99.90;;;;;;5033744;28;20558;-58
2023/12/23 11:20:45;;;;;;;3.00;1.60;;;3.70;99.90;;;;;;5033789;28;20206;-59
2023/12/23 11:23:32;;;;;;;3.67;1.52;;;3.70;99.90;;;;;;5034333;28;20198;-59
2023/12/23 11:25:59;;;;;;;1.00;1.00;;;3.70;99.90;;;;;;5034539;28;20206;-59
2023/12/23 11:28:26;;;;;;;3.17;1.48;;;3.80;99.90;;;;;;5033778;28;20206;-59
2023/12/23 11:30:55;;;;;;;2.40;1.30;;;3.80;99.90;;;;;;5033136;28;20234;-59
2023/12/23 11:33:23;;;;;;;1.52;1.42;;;3.70;99.90;;;;;;5033340;28;20309;-58
2023/12/23 11:35:52;;;;;;;1.83;1.67;;;3.80;99.90;;;;;;5033150;28;20202;-59
2023/12/23 11:38:20;;;;;;;2.15;1.73;;;3.80;99.90;;;;;;5033344;28;20202;-59
2023/12/23 11:40:47;;;;;;;2.00;1.80;;;3.80;99.90;;;;;;5033076;28;20202;-60
2023/12/23 11:43:15;;;;;;;1.60;1.50;;;3.80;99.90;;;;;;5033252;28;20292;-58
2023/12/23 11:45:44;;;;;;;3.05;1.60;;;3.80;99.90;;;;;;5032823;28;20754;-59
2023/12/23 11:48:11;;;;;;;2.20;1.77;;;3.80;99.90;;;;;;5033107;28;20206;-63
2023/12/23 11:50:38;;;;;;;1.80;1.70;;;3.80;99.90;;;;;;5033633;28;20202;-60
2023/12/23 11:53:06;;;;;;;2.25;2.05;;;3.80;99.90;;;;;;5033570;28;20226;-59
2023/12/23 11:55:33;;;;;;;1.95;1.80;;;3.90;99.90;;;;;;5032982;28;20206;-59
2023/12/23 11:58:01;;;;;;;4.22;1.80;;;3.90;99.90;;;;;;5033218;28;20695;-59
2023/12/23 12:00:30;;;;;;;1.75;1.65;;;3.90;99.90;;;;;;5033332;28;20248;-59
2023/12/23 12:02:58;;;;;;;3.20;2.55;;;3.90;99.90;;;;;;5033278;28;20226;-59
2023/12/23 12:05:25;;;;;;;1.90;1.70;;;3.90;99.90;;;;;;5033817;28;20202;-59
2023/12/23 12:07:52;;;;;;;2.05;1.83;;;3.90;99.90;;;;;;5033748;28;20688;-59
2023/12/23 12:10:20;;;;;;;2.95;2.13;;;3.90;99.90;;;;;;5034348;28;20202;-60
2023/12/23 12:12:47;;;;;;;2.00;1.80;;;4.00;99.90;;;;;;5033698;28;20222;-60
2023/12/23 12:15:13;;;;;;;2.45;1.70;;;3.90;99.90;;;;;;5033603;28;20218;-60
2023/12/23 12:17:40;;;;;;;3.38;2.13;;;4.00;99.90;;;;;;5033138;28;20199;-61
2023/12/23 12:20:08;;;;;;;2.85;2.45;;;3.90;99.90;;;;;;5032947;28;20202;-60
2023/12/23 12:22:35;;;;;;;2.30;1.90;;;4.00;99.90;;;;;;5032948;28;20222;-59
2023/12/23 12:25:02;;;;;;;4.47;2.00;;;4.00;99.90;;;;;;5032663;28;20692;-60
2023/12/23 12:27:31;;;;;;;1.83;1.73;;;4.00;99.90;;;;;;5032798;28;20707;-60
2023/12/23 12:29:59;;;;;;;2.45;2.15;;;4.00;99.90;;;;;;5032803;28;20636;-60
2023/12/23 12:32:25;;;;;;;2.90;2.30;;;4.00;99.90;;;;;;5033373;28;20222;-61
2023/12/23 12:35:01;;;;;;;6.07;2.47;;;4.10;99.90;;;;;;5038073;28;20222;-60
2023/12/23 12:37:28;;;;;;;3.65;2.40;;;4.10;99.90;;;;;;5038487;28;20186;-61
2023/12/23 12:39:55;;;;;;;3.35;2.13;;;4.10;99.90;;;;;;5038471;28;20202;-60
2023/12/23 12:42:25;;;;;;;3.53;2.60;;;4.20;99.90;;;;;;5039301;28;20725;-60
2023/12/23 12:45:00;;;;;;;2.65;1.80;;;4.20;99.90;;;;;;5039862;28;20202;-59
2023/12/23 12:47:29;;;;;;;2.40;1.75;;;4.20;99.90;;;;;;5039083;28;20641;-60
2023/12/23 12:50:01;;;;;;;2.85;2.28;;;4.20;99.90;;;;;;5039081;28;20202;-59
2023/12/23 12:52:28;;;;;;;2.17;1.77;;;4.20;99.90;;;;;;5038573;28;20276;-59
2023/12/23 12:54:57;;;;;;;2.72;2.40;;;4.20;99.90;;;;;;5037216;28;20222;-60
2023/12/23 12:57:24;;;;;;;2.30;1.88;;;4.20;99.90;;;;;;5036648;28;20199;-61